Terminal Aerodrome Forecast
Issued by NWS

Home | Current Version | Previous Version | Graphics & Text | Print | Product List | Glossary On
Versions: 1 2 3 4 5 6 7 8 9 10 11 12 13 14 15 16 17 18 19 20 21 22 23 24 25 26 27 28 29 30
000
FTUS43 KGRB 032320
TAFRHI
TAF
KRHI 032320Z 0400/0424 33007KT P6SM VCTS SCT030 BKN050CB
      TEMPO 0400/0402 5SM -RA BKN030
     FM040200 36009KT P6SM SCT025 BKN040
     FM041200 35010KT P6SM SCT040
      TEMPO 0412/0415 BKN040=

USA.gov is the U.S. government's official web portal to all federal, state and local government web resources and services.